DLH1WK KLAS-EDDF
Flight info
| Callsign | DLH1WK |
|---|---|
| Flight time | N/A |
| Altitude | 33000 |
| Route | RATPK3 FRNCK DCT MLF DCT DDY/N0478F350 DCT KD87W DCT KP12A DCT KP18C DCT 5130N09000W 5530N08000W 5730N07000W/N0471F370 DCT LAKES/M083F370 DCT URTAK DCT 59N050W 59N040W 58N030W 56N020W DCT RESNO/N0470F370 DCT NETKI DCT CON/N0472F390 DCT MORAG DCT NUCHU L607 KONAN UL607 SPI T180 NIVNU/N0425F230 T847 IMCOM IMCOM1A |
| Aircraft | A346/H-SDE2E3FGHIJ3J4J5M1RWXY/LB1D1 |
Departure
| Time | N/A |
|---|---|
| Airport | Harry Reid International Airport (KLAS) |
Arrival
| Time | 2026-04-19 09:56 |
|---|---|
| Airport | Frankfurt Main Airport (EDDF) |
| Time | Latitude | Longitude | Altitude | Speed | Heading |
|---|---|---|---|---|---|
| 2026-04-19 08:33 | 53.24217 | -6.85436 | 33379 ft | 525 kts | 118° |
| 2026-04-19 08:33 | 53.22371 | -6.80198 | 33380 ft | 525 kts | 118° |
| 2026-04-19 08:33 | 53.18644 | -6.69658 | 33376 ft | 525 kts | 118° |
| 2026-04-19 08:34 | 53.14927 | -6.59184 | 33377 ft | 524 kts | 118° |
| 2026-04-19 08:34 | 53.11200 | -6.48735 | 33376 ft | 524 kts | 118° |
| 2026-04-19 08:35 | 53.07466 | -6.38301 | 33378 ft | 524 kts | 118° |
| 2026-04-19 08:35 | 53.03723 | -6.27890 | 33384 ft | 524 kts | 119° |
| 2026-04-19 08:36 | 52.99982 | -6.17527 | 33381 ft | 524 kts | 119° |
| 2026-04-19 08:36 | 52.96216 | -6.07135 | 33381 ft | 523 kts | 119° |
| 2026-04-19 08:37 | 52.92463 | -5.96820 | 33381 ft | 523 kts | 119° |
| 2026-04-19 08:37 | 52.88722 | -5.86566 | 33381 ft | 523 kts | 120° |
| 2026-04-19 08:38 | 52.84942 | -5.76264 | 33389 ft | 523 kts | 120° |
| 2026-04-19 08:38 | 52.81155 | -5.65977 | 33387 ft | 522 kts | 120° |
| 2026-04-19 08:39 | 52.77363 | -5.55718 | 33387 ft | 522 kts | 120° |
| 2026-04-19 08:39 | 52.73757 | -5.45314 | 33382 ft | 521 kts | 116° |
| 2026-04-19 08:40 | 52.70427 | -5.34668 | 33384 ft | 521 kts | 115° |
| 2026-04-19 08:40 | 52.67105 | -5.24027 | 33384 ft | 522 kts | 115° |
| 2026-04-19 08:41 | 52.63767 | -5.13395 | 33377 ft | 522 kts | 116° |
| 2026-04-19 08:41 | 52.60395 | -5.02711 | 33377 ft | 531 kts | 116° |
| 2026-04-19 08:42 | 52.56971 | -4.91915 | 33376 ft | 533 kts | 116° |
| 2026-04-19 08:42 | 52.53521 | -4.81092 | 33370 ft | 534 kts | 116° |
| 2026-04-19 08:43 | 52.50062 | -4.70282 | 33366 ft | 534 kts | 116° |
| 2026-04-19 08:43 | 52.46597 | -4.59503 | 33366 ft | 533 kts | 117° |
| 2026-04-19 08:44 | 52.43120 | -4.48735 | 33364 ft | 533 kts | 117° |
| 2026-04-19 08:44 | 52.39638 | -4.37995 | 33366 ft | 534 kts | 117° |
| 2026-04-19 08:45 | 52.36141 | -4.27260 | 33364 ft | 534 kts | 117° |
| 2026-04-19 08:45 | 52.32636 | -4.16543 | 33365 ft | 533 kts | 117° |
| 2026-04-19 08:46 | 52.29127 | -4.05865 | 33358 ft | 533 kts | 117° |
| 2026-04-19 08:46 | 52.25611 | -3.95208 | 33358 ft | 533 kts | 117° |
| 2026-04-19 08:47 | 52.22085 | -3.84568 | 33356 ft | 533 kts | 118° |
| 2026-04-19 08:47 | 52.18566 | -3.73996 | 33358 ft | 533 kts | 118° |
| 2026-04-19 08:48 | 52.15018 | -3.63383 | 33357 ft | 533 kts | 118° |
| 2026-04-19 08:48 | 52.11455 | -3.52767 | 33360 ft | 534 kts | 118° |
| 2026-04-19 08:49 | 52.07881 | -3.42162 | 33367 ft | 534 kts | 118° |
| 2026-04-19 08:49 | 52.04294 | -3.31562 | 33365 ft | 535 kts | 118° |
| 2026-04-19 08:50 | 52.00691 | -3.20967 | 33369 ft | 535 kts | 118° |
| 2026-04-19 08:50 | 51.97078 | -3.10382 | 33376 ft | 535 kts | 118° |
| 2026-04-19 08:51 | 51.93467 | -2.99847 | 33374 ft | 535 kts | 118° |
| 2026-04-19 08:51 | 51.89834 | -2.89295 | 33375 ft | 536 kts | 119° |
| 2026-04-19 08:52 | 51.86185 | -2.78740 | 33376 ft | 537 kts | 119° |
| 2026-04-19 08:52 | 51.82519 | -2.68184 | 33375 ft | 538 kts | 119° |
| 2026-04-19 08:53 | 51.78841 | -2.57632 | 33377 ft | 539 kts | 119° |
| 2026-04-19 08:53 | 51.75150 | -2.47091 | 33370 ft | 539 kts | 119° |
| 2026-04-19 08:54 | 51.71440 | -2.36539 | 33367 ft | 540 kts | 119° |
| 2026-04-19 08:54 | 51.67722 | -2.26000 | 33367 ft | 540 kts | 120° |
| 2026-04-19 08:55 | 51.64000 | -2.15498 | 33366 ft | 540 kts | 120° |
| 2026-04-19 08:55 | 51.60254 | -2.04968 | 33367 ft | 541 kts | 120° |
| 2026-04-19 08:56 | 51.56539 | -1.94560 | 33364 ft | 541 kts | 120° |
| 2026-04-19 08:56 | 51.52777 | -1.84067 | 33362 ft | 541 kts | 120° |
| 2026-04-19 08:57 | 51.49190 | -1.73312 | 33356 ft | 541 kts | 115° |
| 2026-04-19 08:57 | 51.46371 | -1.62127 | 33351 ft | 540 kts | 107° |
| 2026-04-19 08:58 | 51.44385 | -1.50544 | 33349 ft | 537 kts | 100° |
| 2026-04-19 08:58 | 51.42888 | -1.38780 | 33349 ft | 537 kts | 100° |
| 2026-04-19 08:59 | 51.41318 | -1.27158 | 33348 ft | 537 kts | 101° |
| 2026-04-19 08:59 | 51.39805 | -1.15474 | 33348 ft | 535 kts | 97° |
| 2026-04-19 09:00 | 51.38948 | -1.03573 | 33349 ft | 533 kts | 92° |
| 2026-04-19 09:00 | 51.38364 | -0.91798 | 33348 ft | 533 kts | 92° |
| 2026-04-19 09:01 | 51.37758 | -0.79798 | 33348 ft | 533 kts | 92° |
| 2026-04-19 09:01 | 51.37132 | -0.67973 | 33349 ft | 532 kts | 92° |
| 2026-04-19 09:02 | 51.36488 | -0.56152 | 33348 ft | 532 kts | 92° |
| 2026-04-19 09:02 | 51.35825 | -0.44211 | 33347 ft | 532 kts | 92° |
| 2026-04-19 09:03 | 51.35159 | -0.32417 | 33349 ft | 532 kts | 92° |
| 2026-04-19 09:03 | 51.34487 | -0.20705 | 33347 ft | 532 kts | 92° |
| 2026-04-19 09:04 | 51.33899 | -0.10590 | 33349 ft | 532 kts | 93° |
| 2026-04-19 09:04 | 51.33242 | 0.00480 | 33348 ft | 532 kts | 93° |
| 2026-04-19 09:05 | 51.32256 | 0.12235 | 33347 ft | 531 kts | 96° |
| 2026-04-19 09:05 | 51.31208 | 0.23151 | 33349 ft | 531 kts | 96° |
| 2026-04-19 09:06 | 51.30073 | 0.34910 | 33345 ft | 532 kts | 96° |
| 2026-04-19 09:06 | 51.28939 | 0.46638 | 33340 ft | 533 kts | 97° |
| 2026-04-19 09:07 | 51.27794 | 0.58393 | 33335 ft | 534 kts | 97° |
| 2026-04-19 09:07 | 51.26641 | 0.70110 | 33331 ft | 534 kts | 97° |
| 2026-04-19 09:08 | 51.25474 | 0.81835 | 33327 ft | 534 kts | 97° |
| 2026-04-19 09:08 | 51.24296 | 0.93563 | 33320 ft | 534 kts | 97° |
| 2026-04-19 09:09 | 51.23106 | 1.05277 | 33319 ft | 534 kts | 97° |
| 2026-04-19 09:09 | 51.21903 | 1.17006 | 33322 ft | 535 kts | 97° |
| 2026-04-19 09:10 | 51.20689 | 1.28724 | 33318 ft | 535 kts | 97° |
| 2026-04-19 09:10 | 51.19461 | 1.40454 | 33308 ft | 535 kts | 98° |
| 2026-04-19 09:11 | 51.18223 | 1.52177 | 33311 ft | 535 kts | 98° |
| 2026-04-19 09:11 | 51.16974 | 1.63884 | 33307 ft | 535 kts | 98° |
| 2026-04-19 09:12 | 51.15724 | 1.75520 | 33299 ft | 536 kts | 98° |
| 2026-04-19 09:12 | 51.14500 | 1.86812 | 33294 ft | 536 kts | 98° |
| 2026-04-19 09:13 | 51.13247 | 1.98532 | 33292 ft | 536 kts | 96° |
| 2026-04-19 09:13 | 51.12487 | 2.10345 | 33294 ft | 534 kts | 92° |
| 2026-04-19 09:14 | 51.11915 | 2.22147 | 33293 ft | 534 kts | 92° |
| 2026-04-19 09:14 | 51.11329 | 2.33927 | 33293 ft | 533 kts | 93° |
| 2026-04-19 09:15 | 51.10721 | 2.45713 | 33294 ft | 533 kts | 93° |
| 2026-04-19 09:16 | 51.09568 | 2.63332 | 33293 ft | 534 kts | 98° |
| 2026-04-19 09:16 | 51.07946 | 2.74822 | 33293 ft | 535 kts | 105° |
| 2026-04-19 09:17 | 51.05846 | 2.86153 | 33292 ft | 534 kts | 106° |
| 2026-04-19 09:17 | 51.03721 | 2.97492 | 33294 ft | 534 kts | 106° |
| 2026-04-19 09:18 | 51.01603 | 3.08839 | 33292 ft | 533 kts | 106° |
| 2026-04-19 09:18 | 50.99492 | 3.20123 | 33289 ft | 533 kts | 107° |
| 2026-04-19 09:19 | 50.97385 | 3.31330 | 33286 ft | 532 kts | 107° |
| 2026-04-19 09:19 | 50.95602 | 3.40769 | 33283 ft | 532 kts | 107° |
| 2026-04-19 09:20 | 50.93469 | 3.52006 | 33276 ft | 532 kts | 107° |
| 2026-04-19 09:20 | 50.91322 | 3.63232 | 33270 ft | 531 kts | 107° |
| 2026-04-19 09:21 | 50.89160 | 3.74418 | 33267 ft | 531 kts | 107° |
| 2026-04-19 09:21 | 50.86989 | 3.85605 | 33263 ft | 531 kts | 108° |
| 2026-04-19 09:22 | 50.84815 | 3.96773 | 33268 ft | 532 kts | 108° |
| 2026-04-19 09:22 | 50.82629 | 4.07957 | 33267 ft | 531 kts | 108° |
| 2026-04-19 09:23 | 50.80440 | 4.19114 | 33267 ft | 530 kts | 108° |
| 2026-04-19 09:23 | 50.78245 | 4.30197 | 33264 ft | 529 kts | 109° |
| 2026-04-19 09:24 | 50.76036 | 4.41313 | 33267 ft | 529 kts | 109° |
| 2026-04-19 09:24 | 50.73824 | 4.52398 | 33268 ft | 529 kts | 109° |
| 2026-04-19 09:25 | 50.71601 | 4.63494 | 33267 ft | 530 kts | 109° |
| 2026-04-19 09:25 | 50.69443 | 4.74639 | 33266 ft | 530 kts | 108° |
| 2026-04-19 09:26 | 50.67293 | 4.85765 | 33263 ft | 529 kts | 109° |
| 2026-04-19 09:26 | 50.65091 | 4.96863 | 33252 ft | 529 kts | 109° |
| 2026-04-19 09:27 | 50.62822 | 5.07825 | 33248 ft | 528 kts | 110° |
| 2026-04-19 09:27 | 50.60505 | 5.18984 | 33251 ft | 529 kts | 110° |
| 2026-04-19 09:28 | 50.58208 | 5.30044 | 33246 ft | 529 kts | 110° |
| 2026-04-19 09:28 | 50.55899 | 5.41126 | 33236 ft | 529 kts | 110° |
| 2026-04-19 09:29 | 50.53593 | 5.52133 | 33208 ft | 530 kts | 110° |
| 2026-04-19 09:29 | 50.52428 | 5.57618 | 32939 ft | 525 kts | 109° |
| 2026-04-19 09:29 | 50.51297 | 5.63061 | 32681 ft | 522 kts | 108° |
| 2026-04-19 09:29 | 50.50243 | 5.68615 | 32430 ft | 518 kts | 107° |
| 2026-04-19 09:30 | 50.49234 | 5.74021 | 32179 ft | 513 kts | 107° |
| 2026-04-19 09:30 | 50.48234 | 5.79389 | 31921 ft | 511 kts | 107° |
| 2026-04-19 09:30 | 50.47229 | 5.84774 | 31606 ft | 513 kts | 107° |
| 2026-04-19 09:30 | 50.46216 | 5.90182 | 31132 ft | 514 kts | 107° |
| 2026-04-19 09:31 | 50.45201 | 5.95574 | 30516 ft | 514 kts | 107° |
| 2026-04-19 09:31 | 50.44166 | 6.01050 | 29813 ft | 515 kts | 107° |
| 2026-04-19 09:31 | 50.43143 | 6.06447 | 29079 ft | 518 kts | 107° |
| 2026-04-19 09:31 | 50.42093 | 6.11980 | 28278 ft | 520 kts | 107° |
| 2026-04-19 09:32 | 50.41056 | 6.17425 | 27635 ft | 518 kts | 107° |
| 2026-04-19 09:32 | 50.40031 | 6.22795 | 27172 ft | 511 kts | 107° |
| 2026-04-19 09:32 | 50.39011 | 6.28118 | 26632 ft | 508 kts | 107° |
| 2026-04-19 09:32 | 50.37992 | 6.33412 | 26092 ft | 504 kts | 108° |
| 2026-04-19 09:33 | 50.37037 | 6.38679 | 25629 ft | 498 kts | 104° |
| 2026-04-19 09:33 | 50.36303 | 6.44031 | 25294 ft | 496 kts | 100° |
| 2026-04-19 09:33 | 50.35703 | 6.49339 | 25021 ft | 495 kts | 101° |
| 2026-04-19 09:33 | 50.35075 | 6.54648 | 24780 ft | 493 kts | 101° |
| 2026-04-19 09:34 | 50.34445 | 6.59925 | 24522 ft | 491 kts | 101° |
| 2026-04-19 09:34 | 50.33821 | 6.65171 | 24264 ft | 489 kts | 101° |
| 2026-04-19 09:34 | 50.33202 | 6.70400 | 24017 ft | 487 kts | 101° |
| 2026-04-19 09:34 | 50.32588 | 6.75606 | 23763 ft | 484 kts | 101° |
| 2026-04-19 09:35 | 50.31975 | 6.80785 | 23505 ft | 482 kts | 101° |
| 2026-04-19 09:35 | 50.31353 | 6.86045 | 23247 ft | 481 kts | 101° |
| 2026-04-19 09:35 | 50.30742 | 6.91190 | 23003 ft | 479 kts | 102° |
| 2026-04-19 09:35 | 50.30134 | 6.96294 | 22746 ft | 476 kts | 102° |
| 2026-04-19 09:36 | 50.29522 | 7.01399 | 22504 ft | 474 kts | 102° |
| 2026-04-19 09:36 | 50.28915 | 7.06456 | 22249 ft | 472 kts | 102° |
| 2026-04-19 09:36 | 50.28307 | 7.11493 | 21980 ft | 471 kts | 102° |
| 2026-04-19 09:36 | 50.27699 | 7.16511 | 21648 ft | 468 kts | 102° |
| 2026-04-19 09:37 | 50.27085 | 7.21553 | 21316 ft | 466 kts | 102° |
| 2026-04-19 09:37 | 50.26463 | 7.26652 | 20977 ft | 463 kts | 103° |
| 2026-04-19 09:37 | 50.25853 | 7.31634 | 20643 ft | 461 kts | 103° |
| 2026-04-19 09:37 | 50.25242 | 7.36599 | 20322 ft | 459 kts | 103° |
| 2026-04-19 09:38 | 50.24638 | 7.41499 | 19991 ft | 457 kts | 103° |
| 2026-04-19 09:38 | 50.24034 | 7.46371 | 19660 ft | 456 kts | 103° |
| 2026-04-19 09:38 | 50.23429 | 7.51242 | 19096 ft | 455 kts | 103° |
| 2026-04-19 09:38 | 50.22817 | 7.56140 | 18475 ft | 453 kts | 103° |
| 2026-04-19 09:39 | 50.22213 | 7.60966 | 17835 ft | 451 kts | 103° |
| 2026-04-19 09:39 | 50.21616 | 7.65712 | 17184 ft | 449 kts | 103° |
| 2026-04-19 09:39 | 50.21016 | 7.70475 | 16507 ft | 443 kts | 103° |
| 2026-04-19 09:39 | 50.20427 | 7.75136 | 15858 ft | 433 kts | 103° |
| 2026-04-19 09:40 | 50.19848 | 7.79706 | 15231 ft | 425 kts | 103° |
| 2026-04-19 09:40 | 50.19273 | 7.84227 | 14661 ft | 423 kts | 103° |
| 2026-04-19 09:40 | 50.18700 | 7.88703 | 14236 ft | 417 kts | 103° |
| 2026-04-19 09:40 | 50.18129 | 7.93156 | 14175 ft | 418 kts | 103° |
| 2026-04-19 09:41 | 50.17557 | 7.97599 | 14174 ft | 418 kts | 103° |
| 2026-04-19 09:41 | 50.16979 | 8.02072 | 14175 ft | 418 kts | 103° |
| 2026-04-19 09:41 | 50.16401 | 8.06540 | 14174 ft | 419 kts | 103° |
| 2026-04-19 09:41 | 50.15823 | 8.10994 | 14120 ft | 419 kts | 104° |
| 2026-04-19 09:42 | 50.15245 | 8.15427 | 13759 ft | 416 kts | 104° |
| 2026-04-19 09:42 | 50.14670 | 8.19828 | 13381 ft | 412 kts | 104° |
| 2026-04-19 09:42 | 50.14097 | 8.24198 | 13001 ft | 409 kts | 103° |
| 2026-04-19 09:42 | 50.13528 | 8.28523 | 12600 ft | 406 kts | 103° |
| 2026-04-19 09:43 | 50.12961 | 8.32831 | 12186 ft | 403 kts | 104° |
| 2026-04-19 09:43 | 50.12400 | 8.37081 | 11709 ft | 400 kts | 104° |
| 2026-04-19 09:43 | 50.11844 | 8.41266 | 11280 ft | 396 kts | 103° |
| 2026-04-19 09:43 | 50.11288 | 8.45435 | 10826 ft | 393 kts | 103° |
| 2026-04-19 09:44 | 50.10735 | 8.49577 | 10377 ft | 388 kts | 103° |
| 2026-04-19 09:44 | 50.10190 | 8.53648 | 9808 ft | 377 kts | 103° |
| 2026-04-19 09:44 | 50.09670 | 8.57534 | 9338 ft | 357 kts | 102° |
| 2026-04-19 09:44 | 50.09173 | 8.61233 | 8870 ft | 340 kts | 102° |
| 2026-04-19 09:45 | 50.08697 | 8.64779 | 8423 ft | 325 kts | 102° |
| 2026-04-19 09:45 | 50.08241 | 8.68165 | 7978 ft | 313 kts | 102° |
| 2026-04-19 09:45 | 50.07801 | 8.71430 | 7511 ft | 303 kts | 102° |
| 2026-04-19 09:45 | 50.07373 | 8.74595 | 7258 ft | 295 kts | 102° |
| 2026-04-19 09:46 | 50.06952 | 8.77705 | 7142 ft | 289 kts | 102° |
| 2026-04-19 09:46 | 50.06536 | 8.80776 | 7152 ft | 290 kts | 102° |
| 2026-04-19 09:46 | 50.06116 | 8.83855 | 7147 ft | 290 kts | 102° |
| 2026-04-19 09:46 | 50.05692 | 8.86951 | 7154 ft | 290 kts | 102° |
| 2026-04-19 09:47 | 50.05268 | 8.90037 | 7145 ft | 290 kts | 102° |
| 2026-04-19 09:47 | 50.04852 | 8.93124 | 6921 ft | 292 kts | 99° |
| 2026-04-19 09:47 | 50.04668 | 8.96268 | 6537 ft | 291 kts | 89° |
| 2026-04-19 09:47 | 50.04842 | 8.99392 | 6155 ft | 290 kts | 78° |
| 2026-04-19 09:48 | 50.05363 | 9.02410 | 5775 ft | 287 kts | 69° |
| 2026-04-19 09:48 | 50.06061 | 9.05395 | 5373 ft | 285 kts | 68° |
| 2026-04-19 09:48 | 50.06805 | 9.08240 | 4983 ft | 282 kts | 60° |
| 2026-04-19 09:48 | 50.08026 | 9.10576 | 4585 ft | 274 kts | 33° |
| 2026-04-19 09:49 | 50.09911 | 9.11748 | 4172 ft | 265 kts | 2° |
| 2026-04-19 09:49 | 50.11711 | 9.11288 | 3969 ft | 253 kts | 331° |
| 2026-04-19 09:49 | 50.13031 | 9.09530 | 4001 ft | 252 kts | 303° |
| 2026-04-19 09:49 | 50.13711 | 9.07044 | 4022 ft | 253 kts | 287° |
| 2026-04-19 09:50 | 50.14109 | 9.04344 | 3984 ft | 253 kts | 276° |
| 2026-04-19 09:50 | 50.14019 | 9.01594 | 3990 ft | 255 kts | 260° |
| 2026-04-19 09:50 | 50.13563 | 8.98941 | 4010 ft | 256 kts | 255° |
| 2026-04-19 09:50 | 50.13012 | 8.96236 | 4000 ft | 256 kts | 253° |
| 2026-04-19 09:51 | 50.12428 | 8.93638 | 3985 ft | 248 kts | 252° |
| 2026-04-19 09:51 | 50.11844 | 8.91180 | 3978 ft | 233 kts | 251° |
| 2026-04-19 09:51 | 50.11288 | 8.88893 | 3947 ft | 217 kts | 251° |
| 2026-04-19 09:51 | 50.10777 | 8.86805 | 3964 ft | 201 kts | 251° |
| 2026-04-19 09:52 | 50.10288 | 8.84803 | 3830 ft | 193 kts | 252° |
| 2026-04-19 09:52 | 50.09816 | 8.82859 | 3601 ft | 190 kts | 252° |
| 2026-04-19 09:52 | 50.09344 | 8.80911 | 3326 ft | 188 kts | 252° |
| 2026-04-19 09:52 | 50.08889 | 8.79034 | 3058 ft | 182 kts | 252° |
| 2026-04-19 09:53 | 50.08445 | 8.77196 | 2828 ft | 179 kts | 252° |
| 2026-04-19 09:53 | 50.08009 | 8.75383 | 2607 ft | 178 kts | 253° |
| 2026-04-19 09:53 | 50.07587 | 8.73632 | 2406 ft | 171 kts | 253° |
| 2026-04-19 09:53 | 50.07178 | 8.71939 | 2157 ft | 160 kts | 253° |
| 2026-04-19 09:54 | 50.06800 | 8.70367 | 1947 ft | 151 kts | 254° |
| 2026-04-19 09:54 | 50.06436 | 8.68842 | 1753 ft | 150 kts | 255° |
| 2026-04-19 09:54 | 50.06074 | 8.67322 | 1565 ft | 149 kts | 254° |
| 2026-04-19 09:54 | 50.05711 | 8.65804 | 1368 ft | 149 kts | 255° |
| 2026-04-19 09:55 | 50.05350 | 8.64292 | 1167 ft | 149 kts | 254° |
| 2026-04-19 09:55 | 50.04990 | 8.62787 | 958 ft | 148 kts | 254° |
| 2026-04-19 09:55 | 50.04629 | 8.61278 | 768 ft | 148 kts | 254° |
| 2026-04-19 09:55 | 50.04269 | 8.59789 | 578 ft | 145 kts | 255° |
| 2026-04-19 09:56 | 50.03923 | 8.58350 | 379 ft | 135 kts | 255° |
| 2026-04-19 09:56 | 50.03661 | 8.57211 | 364 ft | 85 kts | 250° |
| 2026-04-19 09:56 | 50.03505 | 8.56556 | 359 ft | 56 kts | 249° |
| 2026-04-19 09:56 | 50.03436 | 8.56140 | 361 ft | 34 kts | 269° |
| 2026-04-19 09:57 | 50.03464 | 8.55809 | 360 ft | 28 kts | 279° |
| 2026-04-19 09:57 | 50.03489 | 8.55570 | 354 ft | 16 kts | 277° |
| 2026-04-19 09:57 | 50.03469 | 8.55382 | 353 ft | 19 kts | 250° |
| 2026-04-19 09:57 | 50.03418 | 8.55162 | 352 ft | 21 kts | 250° |
| 2026-04-19 09:58 | 50.03363 | 8.54931 | 353 ft | 24 kts | 249° |
| 2026-04-19 09:58 | 50.03307 | 8.54701 | 347 ft | 15 kts | 249° |
| 2026-04-19 09:58 | 50.03284 | 8.54604 | 351 ft | 9 kts | 249° |
| 2026-04-19 09:58 | 50.03289 | 8.54504 | 353 ft | 10 kts | 315° |
| 2026-04-19 09:59 | 50.03346 | 8.54461 | 356 ft | 4 kts | 338° |
| 2026-04-19 09:59 | 50.03353 | 8.54457 | 352 ft | 0 kts | 339° |
| 2026-04-19 09:59 | 50.03354 | 8.54457 | 348 ft | 0 kts | 339° |
| 2026-04-19 09:59 | 50.03368 | 8.54448 | 357 ft | 5 kts | 339° |
| 2026-04-19 10:00 | 50.03424 | 8.54415 | 350 ft | 11 kts | 339° |
| 2026-04-19 10:00 | 50.03504 | 8.54369 | 361 ft | 13 kts | 340° |
| 2026-04-19 10:00 | 50.03566 | 8.54334 | 353 ft | 2 kts | 340° |
| 2026-04-19 10:00 | 50.03590 | 8.54320 | 351 ft | 5 kts | 340° |
| 2026-04-19 10:01 | 50.03633 | 8.54316 | 352 ft | 7 kts | 16° |
| 2026-04-19 10:01 | 50.03672 | 8.54382 | 355 ft | 10 kts | 64° |
| 2026-04-19 10:01 | 50.03702 | 8.54498 | 353 ft | 13 kts | 69° |
| 2026-04-19 10:01 | 50.03738 | 8.54648 | 354 ft | 15 kts | 69° |
| 2026-04-19 10:02 | 50.03779 | 8.54820 | 362 ft | 18 kts | 69° |
| 2026-04-19 10:02 | 50.03826 | 8.55017 | 358 ft | 17 kts | 70° |
| 2026-04-19 10:02 | 50.03866 | 8.55184 | 357 ft | 16 kts | 69° |
| 2026-04-19 10:02 | 50.03890 | 8.55286 | 365 ft | 7 kts | 69° |
| 2026-04-19 10:03 | 50.03896 | 8.55310 | 357 ft | 0 kts | 69° |
| 2026-04-19 10:04 | 50.03898 | 8.55319 | 361 ft | 3 kts | 69° |
| 2026-04-19 10:04 | 50.03910 | 8.55371 | 358 ft | 7 kts | 69° |
| 2026-04-19 10:04 | 50.03934 | 8.55470 | 361 ft | 12 kts | 69° |
| 2026-04-19 10:05 | 50.03970 | 8.55620 | 359 ft | 17 kts | 69° |
| 2026-04-19 10:05 | 50.04004 | 8.55764 | 361 ft | 9 kts | 70° |
| 2026-04-19 10:05 | 50.04023 | 8.55843 | 358 ft | 4 kts | 70° |
| 2026-04-19 10:05 | 50.04024 | 8.55844 | 365 ft | 0 kts | 70° |
| 2026-04-19 10:07 | 50.04026 | 8.55856 | 366 ft | 3 kts | 70° |
| 2026-04-19 10:07 | 50.04041 | 8.55916 | 362 ft | 8 kts | 67° |
| 2026-04-19 10:07 | 50.04087 | 8.55963 | 360 ft | 9 kts | 1° |
| 2026-04-19 10:07 | 50.04135 | 8.55946 | 361 ft | 0 kts | 340° |
| 2026-04-19 10:08 | 50.04159 | 8.55932 | 366 ft | 8 kts | 340° |
| 2026-04-19 10:09 | 50.04220 | 8.55925 | 364 ft | 10 kts | 24° |
| 2026-04-19 10:09 | 50.04293 | 8.55952 | 369 ft | 12 kts | 349° |
| 2026-04-19 10:09 | 50.04380 | 8.55911 | 368 ft | 14 kts | 350° |
| 2026-04-19 10:09 | 50.04468 | 8.55929 | 366 ft | 7 kts | 15° |
| 2026-04-19 10:10 | 50.04529 | 8.55961 | 365 ft | 11 kts | 26° |
| 2026-04-19 10:10 | 50.04583 | 8.55974 | 366 ft | 8 kts | 349° |
| 2026-04-19 10:10 | 50.04608 | 8.55962 | 364 ft | 3 kts | 342° |
| 2026-04-19 10:10 | 50.04628 | 8.55952 | 369 ft | 3 kts | 341° |
| 2026-04-19 10:11 | 50.04634 | 8.55948 | 364 ft | 1 kts | 341° |
| 2026-04-19 10:11 | 50.04641 | 8.55945 | 366 ft | 0 kts | 340° |